Time;durP1;ratioP1;P1;durP2;ratioP2;P2;SDS_P1;SDS_P2;PMS_P1;PMS_P2;Temp;Humidity;BMP_temperature;BMP_pressure;BME280_temperature;BME280_humidity;BME280_pressure;Samples;Min_cycle;Max_cycle;Signal;HPM_P1;HPM_P2
2021/10/21 00:02:13;;;;;;;;;;;;;;;16.89;61.13;99190.38;4923264;28;98320;-58
2021/10/21 00:04:39;;;;;;;;;;;;;;;16.89;61.19;99180.28;4922917;28;97916;-60
2021/10/21 00:07:06;;;;;;;;;;;;;;;16.87;61.23;99170.91;4890125;28;97987;-57
2021/10/21 00:09:32;;;;;;;;;;;;;;;16.86;61.11;99151.06;4922491;28;120772;-58
2021/10/21 00:11:58;;;;;;;;;;;;;;;16.85;61.19;99154.09;4922358;28;126808;-59
2021/10/21 00:14:24;;;;;;;;;;;;;;;16.84;61.33;99144.34;4922389;28;126563;-58
2021/10/21 00:16:50;;;;;;;;;;;;;;;16.82;61.21;99147.44;4921656;28;119004;-58
2021/10/21 00:19:16;;;;;;;;;;;;;;;16.81;61.18;99145.81;4904531;28;103462;-58
2021/10/21 00:21:42;;;;;;;;;;;;;;;16.80;61.39;99146.19;4923444;28;105892;-57
2021/10/21 00:24:08;;;;;;;;;;;;;;;16.78;61.48;99148.44;4922334;28;127471;-58
2021/10/21 00:26:34;;;;;;;;;;;;;;;16.77;61.31;99147.63;4922801;28;115448;-58
2021/10/21 00:28:59;;;;;;;;;;;;;;;16.76;61.32;99137.91;4922539;28;126484;-58
2021/10/21 00:31:25;;;;;;;;;;;;;;;16.75;61.17;99141.75;4922502;28;128096;-57
2021/10/21 00:33:51;;;;;;;;;;;;;;;16.75;61.28;99140.97;4922266;28;128404;-58
2021/10/21 00:36:17;;;;;;;;;;;;;;;16.73;61.29;99137.75;4922890;28;117323;-58
2021/10/21 00:38:43;;;;;;;;;;;;;;;16.72;61.02;99126.06;4922004;28;128550;-57
2021/10/21 00:41:09;;;;;;;;;;;;;;;16.73;61.23;99113.25;4921508;28;128232;-60
2021/10/21 00:43:38;;;;;;;;;;;;;;;16.72;61.43;99117.13;4920768;28;128070;-57
2021/10/21 00:46:05;;;;;;;;;;;;;;;16.71;61.41;99112.81;4923141;28;97942;-57
2021/10/21 00:48:31;;;;;;;;;;;;;;;16.72;61.35;99111.69;4922498;28;113652;-58
2021/10/21 00:50:57;;;;;;;;;;;;;;;16.71;61.22;99108.16;4922899;28;99165;-57
2021/10/21 00:53:23;;;;;;;;;;;;;;;16.72;61.27;99111.69;4921357;28;127759;-58
2021/10/21 00:55:49;;;;;;;;;;;;;;;16.71;61.43;99108.16;4921275;28;117774;-57
2021/10/21 00:58:15;;;;;;;;;;;;;;;16.71;61.30;99108.16;4904139;28;126458;-57
2021/10/21 01:00:41;;;;;;;;;;;;;;;16.72;61.50;99100.81;4887205;28;128626;-57
2021/10/21 01:03:07;;;;;;;;;;;;;;;16.71;61.40;99099.22;4920515;28;127289;-58
2021/10/21 01:05:33;;;;;;;;;;;;;;;16.71;61.39;99093.78;4922135;28;115634;-58
2021/10/21 01:07:59;;;;;;;;;;;;;;;16.69;61.42;99108.50;4903426;28;127452;-58
2021/10/21 01:10:25;;;;;;;;;;;;;;;16.69;61.41;99094.88;4903560;28;111211;-57
2021/10/21 01:12:50;;;;;;;;;;;;;;;16.69;61.41;99094.09;4934272;28;125158;-57
2021/10/21 01:15:17;;;;;;;;;;;;;;;16.68;61.56;99066.09;4920787;28;118137;-58
2021/10/21 01:17:43;;;;;;;;;;;;;;;16.68;61.49;99055.22;4921963;28;97871;-58
2021/10/21 01:20:11;;;;;;;;;;;;;;;16.67;61.61;99045.50;4921023;28;124658;-58
2021/10/21 01:22:37;;;;;;;;;;;;;;;16.67;61.55;99059.09;4922269;28;98403;-59
2021/10/21 01:25:04;;;;;;;;;;;;;;;16.67;61.35;99048.22;4921058;28;112860;-58
2021/10/21 01:27:30;;;;;;;;;;;;;;;16.67;61.59;99061.81;4921136;28;109821;-58
2021/10/21 01:29:56;;;;;;;;;;;;;;;16.67;61.74;99050.13;4920858;28;120520;-58
2021/10/21 01:32:25;;;;;;;;;;;;;;;16.66;61.61;99045.81;4922421;28;98149;-57
2021/10/21 01:34:52;;;;;;;;;;;;;;;16.65;61.80;99041.50;4922767;28;98039;-57
2021/10/21 01:37:17;;;;;;;;;;;;;;;16.66;61.61;99053.97;4920408;28;124333;-58
2021/10/21 01:39:43;;;;;;;;;;;;;;;16.65;61.61;99046.94;4920788;28;127491;-57
2021/10/21 01:42:10;;;;;;;;;;;;;;;16.66;61.68;99043.09;4922217;28;98543;-57
2021/10/21 01:44:36;;;;;;;;;;;;;;;16.65;61.59;99033.34;4922456;28;98035;-57
2021/10/21 01:47:02;;;;;;;;;;;;;;;16.64;61.59;99039.94;4919831;28;127041;-57
2021/10/21 01:49:28;;;;;;;;;;;;;;;16.64;61.57;99029.84;4920395;28;124572;-60
2021/10/21 01:51:54;;;;;;;;;;;;;;;16.62;61.66;99021.25;4920414;28;128295;-57
2021/10/21 01:54:20;;;;;;;;;;;;;;;16.62;61.55;99025.88;4921486;28;115931;-58
2021/10/21 01:56:46;;;;;;;;;;;;;;;16.61;61.64;99027.81;4921215;28;126493;-58
2021/10/21 01:59:11;;;;;;;;;;;;;;;16.60;61.82;99018.06;4921719;28;98903;-58
2021/10/21 02:01:37;;;;;;;;;;;;;;;16.59;61.63;99013.75;4920215;28;125664;-57
2021/10/21 02:04:04;;;;;;;;;;;;;;;16.56;61.69;99014.44;4920470;28;117001;-60
2021/10/21 02:06:30;;;;;;;;;;;;;;;16.57;61.80;99013.31;4936229;28;101625;-58
2021/10/21 02:08:56;;;;;;;;;;;;;;;16.55;61.96;99017.50;4924762;28;97984;-57
2021/10/21 02:11:22;;;;;;;;;;;;;;;16.54;61.69;99008.53;4922307;28;98030;-58
2021/10/21 02:13:48;;;;;;;;;;;;;;;16.53;61.70;99003.44;4887436;28;97812;-58
2021/10/21 02:16:14;;;;;;;;;;;;;;;16.53;61.86;99000.72;4936371;28;97763;-57
2021/10/21 02:18:40;;;;;;;;;;;;;;;16.50;61.92;98996.75;4920414;28;121181;-57
2021/10/21 02:21:06;;;;;;;;;;;;;;;16.49;61.80;98989.75;4903026;28;127522;-58
2021/10/21 02:23:32;;;;;;;;;;;;;;;16.50;61.82;98991.31;4903675;28;97985;-57
2021/10/21 02:25:58;;;;;;;;;;;;;;;16.51;61.92;98997.56;4920968;28;98556;-57
2021/10/21 02:28:24;;;;;;;;;;;;;;;16.51;61.96;98986.69;4902105;28;118224;-57
2021/10/21 02:30:50;;;;;;;;;;;;;;;16.49;61.97;98989.75;4920473;28;128183;-58
2021/10/21 02:33:16;;;;;;;;;;;;;;;16.49;62.09;98969.91;4921059;28;117211;-57
2021/10/21 02:35:43;;;;;;;;;;;;;;;16.49;61.82;98962.53;4936096;28;98356;-58
2021/10/21 02:38:10;;;;;;;;;;;;;;;16.50;61.88;98961.41;4921725;28;98309;-58
2021/10/21 02:40:36;;;;;;;;;;;;;;;16.48;61.91;98947.38;4923878;28;98313;-58
2021/10/21 02:43:02;;;;;;;;;;;;;;;16.50;61.85;98930.69;4924586;28;97679;-57
2021/10/21 02:45:28;;;;;;;;;;;;;;;16.49;61.66;98918.25;4925329;28;98577;-57
2021/10/21 02:47:54;;;;;;;;;;;;;;;16.48;61.97;98906.56;4924913;28;99549;-57
2021/10/21 02:50:20;;;;;;;;;;;;;;;16.48;62.17;98890.25;4925320;28;97752;-58
2021/10/21 02:52:46;;;;;;;;;;;;;;;16.48;62.10;98837.81;4924140;28;117476;-57
2021/10/21 02:55:12;;;;;;;;;;;;;;;16.47;62.01;98809.03;4924191;28;108101;-58
2021/10/21 02:57:38;;;;;;;;;;;;;;;16.46;62.19;98789.19;4923559;28;128367;-58
2021/10/21 03:00:05;;;;;;;;;;;;;;;16.44;62.08;98735.16;4924221;28;98120;-58
2021/10/21 03:02:31;;;;;;;;;;;;;;;16.43;62.16;98724.63;4923269;28;109798;-58
2021/10/21 03:04:57;;;;;;;;;;;;;;;16.41;62.10;98695.06;4924312;28;97946;-57
2021/10/21 03:07:23;;;;;;;;;;;;;;;16.41;62.35;98707.88;4922884;28;125729;-58
2021/10/21 03:09:49;;;;;;;;;;;;;;;16.38;62.50;98750.13;4923260;28;126909;-58
2021/10/21 03:12:15;;;;;;;;;;;;;;;16.37;62.29;98750.47;4924789;28;97778;-57
2021/10/21 03:14:41;;;;;;;;;;;;;;;16.34;62.46;98703.03;4923151;28;129010;-57
2021/10/21 03:17:07;;;;;;;;;;;;;;;16.34;62.41;98719.34;4921559;28;127301;-58
2021/10/21 03:19:33;;;;;;;;;;;;;;;16.32;62.42;98734.44;4924486;28;98695;-57
2021/10/21 03:21:59;;;;;;;;;;;;;;;16.32;62.53;98720.84;4923684;28;118217;-57
2021/10/21 03:24:25;;;;;;;;;;;;;;;16.30;62.47;98718.44;4924561;28;98148;-58
2021/10/21 03:26:51;;;;;;;;;;;;;;;16.28;62.75;98701.72;4922332;28;127070;-58
2021/10/21 03:29:17;;;;;;;;;;;;;;;16.27;62.54;98672.13;4924094;28;98441;-57
2021/10/21 03:31:43;;;;;;;;;;;;;;;16.27;62.70;98663.97;4922571;28;118151;-58
2021/10/21 03:34:09;;;;;;;;;;;;;;;16.25;62.71;98686.09;4924242;28;101433;-58
2021/10/21 03:36:35;;;;;;;;;;;;;;;16.24;62.54;98692.66;4923488;28;98739;-57
2021/10/21 03:39:01;;;;;;;;;;;;;;;16.24;62.58;98679.06;4922849;28;113230;-57
2021/10/21 03:41:27;;;;;;;;;;;;;;;16.24;62.65;98713.63;4923826;28;97773;-57
2021/10/21 03:43:53;;;;;;;;;;;;;;;16.24;62.72;98713.63;4922062;28;128917;-57
2021/10/21 03:46:19;;;;;;;;;;;;;;;16.23;62.92;98695.72;4922924;28;125702;-58
2021/10/21 03:48:45;;;;;;;;;;;;;;;16.22;62.60;98699.56;4921868;28;128096;-57
2021/10/21 03:51:11;;;;;;;;;;;;;;;16.22;62.95;98694.94;4936583;28;117421;-58
2021/10/21 03:53:37;;;;;;;;;;;;;;;16.23;62.67;98693.00;4923785;28;98887;-58
2021/10/21 03:56:03;;;;;;;;;;;;;;;16.23;62.66;98677.50;4922637;28;128207;-58
2021/10/21 03:58:29;;;;;;;;;;;;;;;16.23;62.73;98677.50;4923682;28;98263;-58
2021/10/21 04:00:55;;;;;;;;;;;;;;;16.22;62.79;98667.75;4922845;28;117900;-57
2021/10/21 04:03:21;;;;;;;;;;;;;;;16.24;62.67;98665.50;4922521;28;127898;-58
2021/10/21 04:05:47;;;;;;;;;;;;;;;16.23;62.59;98658.47;4922581;28;126870;-58
2021/10/21 04:08:12;;;;;;;;;;;;;;;16.25;62.74;98628.22;4922178;28;126429;-58
2021/10/21 04:10:39;;;;;;;;;;;;;;;16.25;62.55;98623.56;4922621;28;117628;-57
2021/10/21 04:13:05;;;;;;;;;;;;;;;16.26;62.67;98616.19;4922758;28;99304;-57
2021/10/21 04:15:31;;;;;;;;;;;;;;;16.26;62.75;98618.91;4922686;28;129370;-58
2021/10/21 04:17:57;;;;;;;;;;;;;;;16.26;62.71;98624.34;4921768;28;127082;-58
2021/10/21 04:20:22;;;;;;;;;;;;;;;16.27;62.63;98601.47;4922733;28;114740;-57
2021/10/21 04:22:48;;;;;;;;;;;;;;;16.27;62.58;98625.91;4921429;28;124242;-58
2021/10/21 04:25:14;;;;;;;;;;;;;;;16.27;62.53;98624.03;4922955;28;117074;-58
2021/10/21 04:27:40;;;;;;;;;;;;;;;16.28;62.50;98608.50;4922207;28;129060;-57
2021/10/21 04:30:07;;;;;;;;;;;;;;;16.27;62.73;98601.47;4922226;28;105182;-59
2021/10/21 04:32:33;;;;;;;;;;;;;;;16.26;62.67;98575.41;4922822;28;98908;-57
2021/10/21 04:34:58;;;;;;;;;;;;;;;16.28;62.55;98594.91;4922179;28;127335;-57
2021/10/21 04:37:25;;;;;;;;;;;;;;;16.27;62.72;98580.53;4918934;28;118534;-58
2021/10/21 04:39:51;;;;;;;;;;;;;;;16.26;62.51;98549.03;4919431;28;109170;-58
2021/10/21 04:42:17;;;;;;;;;;;;;;;16.28;62.80;98562.28;4919243;28;97998;-58
2021/10/21 04:44:43;;;;;;;;;;;;;;;16.27;62.49;98556.06;4919398;28;128313;-57
2021/10/21 04:47:09;;;;;;;;;;;;;;;16.26;62.70;98553.69;4919801;28;97836;-58
2021/10/21 04:49:36;;;;;;;;;;;;;;;16.26;62.69;98543.59;4918838;28;102143;-58
2021/10/21 04:52:01;;;;;;;;;;;;;;;16.26;62.56;98554.47;4918734;28;114498;-58
2021/10/21 04:54:28;;;;;;;;;;;;;;;16.26;62.70;98546.31;4919103;28;113714;-60
2021/10/21 04:56:53;;;;;;;;;;;;;;;16.25;62.54;98544.72;4918419;28;98724;-58
2021/10/21 04:59:19;;;;;;;;;;;;;;;16.26;62.64;98537.38;4919528;28;117306;-58
2021/10/21 05:01:45;;;;;;;;;;;;;;;16.25;62.83;98539.31;4918620;28;127944;-57
2021/10/21 05:04:11;;;;;;;;;;;;;;;16.25;62.65;98524.91;4918258;28;127037;-58
2021/10/21 05:06:37;;;;;;;;;;;;;;;16.25;62.87;98520.28;4920304;28;128873;-58
2021/10/21 05:09:03;;;;;;;;;;;;;;;16.25;62.94;98514.06;4922440;28;117393;-57
2021/10/21 05:11:29;;;;;;;;;;;;;;;16.25;62.78;98517.56;4921764;28;127260;-58
2021/10/21 05:13:55;;;;;;;;;;;;;;;16.25;62.82;98506.69;4902794;28;127120;-57
2021/10/21 05:16:21;;;;;;;;;;;;;;;16.26;62.91;98502.03;4921428;28;127395;-58
2021/10/21 05:18:47;;;;;;;;;;;;;;;16.25;62.69;98490.38;4921282;28;117675;-58
2021/10/21 05:21:13;;;;;;;;;;;;;;;16.28;62.81;98488.88;4936760;28;101903;-58
2021/10/21 05:23:38;;;;;;;;;;;;;;;16.26;62.83;98491.94;4921294;28;107686;-57
2021/10/21 05:26:04;;;;;;;;;;;;;;;16.28;62.88;98491.59;4921807;28;111594;-58
2021/10/21 05:28:30;;;;;;;;;;;;;;;16.30;62.66;98483.88;4921603;28;118021;-60
2021/10/21 05:30:56;;;;;;;;;;;;;;;16.30;63.09;98484.66;4921074;28;127759;-58
2021/10/21 05:33:25;;;;;;;;;;;;;;;16.30;62.75;98486.59;4921546;28;106271;-57
2021/10/21 05:35:51;;;;;;;;;;;;;;;16.32;62.90;98479.66;4922057;28;98409;-57
2021/10/21 05:38:16;;;;;;;;;;;;;;;16.32;62.88;98471.50;4920920;28;117257;-57
2021/10/21 05:40:42;;;;;;;;;;;;;;;16.31;62.66;98453.63;4922284;28;98471;-58
2021/10/21 05:43:08;;;;;;;;;;;;;;;16.33;62.97;98456.78;4921790;28;98772;-57
2021/10/21 05:45:34;;;;;;;;;;;;;;;16.33;62.64;98458.72;4921887;28;125788;-57
2021/10/21 05:48:00;;;;;;;;;;;;;;;16.32;62.56;98430.75;4922195;28;97982;-58
2021/10/21 05:50:26;;;;;;;;;;;;;;;16.32;62.48;98413.63;4921908;28;116854;-58
2021/10/21 05:52:52;;;;;;;;;;;;;;;16.32;62.53;98427.25;4921144;28;121747;-58
2021/10/21 05:55:18;;;;;;;;;;;;;;;16.31;62.52;98425.63;4921164;28;122721;-58
2021/10/21 05:57:44;;;;;;;;;;;;;;;16.31;62.49;98425.63;4922671;28;98003;-58
2021/10/21 06:00:10;;;;;;;;;;;;;;;16.30;62.43;98403.09;4935407;28;124953;-58
2021/10/21 06:02:36;;;;;;;;;;;;;;;16.31;62.58;98409.31;4902897;28;121688;-58
2021/10/21 06:05:05;;;;;;;;;;;;;;;16.32;62.23;98408.22;4921937;28;98055;-58
2021/10/21 06:07:31;;;;;;;;;;;;;;;16.33;62.38;98401.63;4921024;28;106920;-58
2021/10/21 06:09:58;;;;;;;;;;;;;;;16.36;62.16;98430.81;4920935;28;100295;-57
2021/10/21 06:12:24;;;;;;;;;;;;;;;16.36;62.16;98434.31;4921747;28;98226;-58
2021/10/21 06:14:51;;;;;;;;;;;;;;;16.40;61.95;98420.81;4920041;28;123701;-57
2021/10/21 06:17:17;;;;;;;;;;;;;;;16.42;62.10;98434.81;4921152;28;98258;-57
2021/10/21 06:19:44;;;;;;;;;;;;;;;16.42;61.79;98424.72;4921465;28;98508;-58
2021/10/21 06:22:12;;;;;;;;;;;;;;;16.44;61.95;98440.72;4920790;28;99212;-57
2021/10/21 06:24:38;;;;;;;;;;;;;;;16.46;61.81;98441.13;4921760;28;98078;-57
2021/10/21 06:27:04;;;;;;;;;;;;;;;16.49;61.91;98455.97;4921857;28;105865;-57
2021/10/21 06:29:30;;;;;;;;;;;;;;;16.51;61.73;98459.13;4920930;28;98489;-58
2021/10/21 06:31:57;;;;;;;;;;;;;;;16.52;61.72;98450.59;4921218;28;98954;-58
2021/10/21 06:34:23;;;;;;;;;;;;;;;16.55;61.52;98473.59;4921832;28;98603;-57
2021/10/21 06:36:49;;;;;;;;;;;;;;;16.56;61.54;98445.25;4920727;28;118421;-57
2021/10/21 06:39:15;;;;;;;;;;;;;;;16.58;61.40;98435.56;4921038;28;98085;-58
2021/10/21 06:41:41;;;;;;;;;;;;;;;16.62;61.26;98447.34;4920807;28;98571;-57
2021/10/21 06:44:07;;;;;;;;;;;;;;;16.66;61.22;98467.25;4920188;28;128225;-58
2021/10/21 06:46:33;;;;;;;;;;;;;;;16.72;60.85;98442.47;4920737;28;116419;-57
2021/10/21 06:48:59;;;;;;;;;;;;;;;16.77;60.80;98462.03;4922026;28;98067;-57
2021/10/21 06:51:25;;;;;;;;;;;;;;;16.80;60.79;98445.00;4902381;28;121364;-58
2021/10/21 06:53:51;;;;;;;;;;;;;;;16.86;60.37;98462.63;4920442;28;97949;-58
2021/10/21 06:56:17;;;;;;;;;;;;;;;16.95;60.37;98472.53;4921278;28;104824;-58
2021/10/21 06:58:43;;;;;;;;;;;;;;;16.99;60.30;98462.50;4919900;28;127999;-58
2021/10/21 07:01:09;;;;;;;;;;;;;;;17.05;60.05;98452.88;4920369;28;127145;-58
2021/10/21 07:03:35;;;;;;;;;;;;;;;17.09;60.14;98470.06;4921073;28;98067;-58
2021/10/21 07:06:00;;;;;;;;;;;;;;;17.13;59.81;98463.59;4920318;28;117233;-58
2021/10/21 07:08:28;;;;;;;;;;;;;;;17.18;59.81;98485.06;4920233;28;128087;-57
2021/10/21 07:10:56;;;;;;;;;;;;;;;17.25;59.49;98492.59;4921060;28;98022;-58
2021/10/21 07:13:23;;;;;;;;;;;;;;;17.33;59.44;98488.03;4921564;28;97951;-58
2021/10/21 07:15:49;;;;;;;;;;;;;;;17.41;59.42;98485.13;4921596;28;97977;-58
2021/10/21 07:18:15;;;;;;;;;;;;;;;17.52;59.13;98476.34;4919492;28;109313;-58
2021/10/21 07:20:41;;;;;;;;;;;;;;;17.58;59.07;98505.66;4919711;28;128948;-60
2021/10/21 07:23:07;;;;;;;;;;;;;;;17.55;58.97;98514.53;4920316;28;97973;-58
2021/10/21 07:25:35;;;;;;;;;;;;;;;17.51;59.09;98496.56;4922088;28;97835;-58
2021/10/21 07:28:02;;;;;;;;;;;;;;;17.54;59.17;98510.25;4923484;28;98782;-56
2021/10/21 07:30:28;;;;;;;;;;;;;;;17.57;59.04;98501.38;4923922;28;97972;-58
2021/10/21 07:33:03;;;;;;;;;;;;;;;17.65;58.73;98533.03;4923296;28;98200;-57
2021/10/21 07:35:31;;;;;;;;;;;;;;;17.71;58.68;98530.78;4924216;28;97854;-58
2021/10/21 07:38:01;;;;;;;;;;;;;;;17.71;58.49;98508.22;4924262;28;98850;-59
2021/10/21 07:40:27;;;;;;;;;;;;;;;17.67;58.73;98513.59;4924412;28;99093;-58
2021/10/21 07:42:53;;;;;;;;;;;;;;;17.64;58.41;98533.38;4922376;28;126376;-57
2021/10/21 07:45:19;;;;;;;;;;;;;;;17.57;58.50;98508.75;4922821;28;118182;-58
2021/10/21 07:47:45;;;;;;;;;;;;;;;17.51;58.50;98568.16;4923213;28;127303;-57
2021/10/21 07:50:11;;;;;;;;;;;;;;;17.45;58.52;98547.81;4924003;28;103224;-58
2021/10/21 07:52:38;;;;;;;;;;;;;;;17.39;58.56;98560.94;4923213;28;97817;-58
2021/10/21 07:55:06;;;;;;;;;;;;;;;17.46;58.21;98552.13;4905348;28;97954;-58
2021/10/21 07:57:32;;;;;;;;;;;;;;;17.53;58.00;98524.25;4922714;28;117453;-57
2021/10/21 07:59:58;;;;;;;;;;;;;;;17.53;58.03;98559.66;4923432;28;98828;-58
2021/10/21 08:02:24;;;;;;;;;;;;;;;17.48;57.95;98538.91;4923124;28;127066;-58
2021/10/21 08:04:50;;;;;;;;;;;;;;;17.47;57.94;98559.13;4922643;28;116324;-58
2021/10/21 08:07:16;;;;;;;;;;;;;;;17.49;57.86;98572.38;4923709;28;98600;-57
2021/10/21 08:09:42;;;;;;;;;;;;;;;17.46;57.82;98565.75;4922794;28;97915;-58
2021/10/21 08:12:08;;;;;;;;;;;;;;;17.42;57.85;98526.75;4923561;28;97688;-58
2021/10/21 08:14:34;;;;;;;;;;;;;;;17.53;57.39;98579.50;4922400;28;117021;-57
2021/10/21 08:17:00;;;;;;;;;;;;;;;18.47;55.65;98571.06;4922043;28;128088;-58
2021/10/21 08:19:26;;;;;;;;;;;;;;;21.44;49.90;98583.22;4922596;28;126344;-58
2021/10/21 08:21:53;;;;;;;;;;;;;;;21.47;50.74;98569.53;4923249;28;98503;-58
2021/10/21 08:24:20;;;;;;;;;;;;;;;21.26;51.64;98562.00;4905207;28;97910;-58
2021/10/21 08:26:50;;;;;;;;;;;;;;;21.14;52.22;98577.94;4938179;28;98161;-58
2021/10/21 08:29:16;;;;;;;;;;;;;;;21.50;51.62;98559.78;4923062;28;97799;-57
2021/10/21 08:31:43;;;;;;;;;;;;;;;21.03;52.68;98548.56;4923215;28;98293;-57
2021/10/21 08:34:08;;;;;;;;;;;;;;;20.78;53.39;98548.41;4922297;28;108842;-57
2021/10/21 08:36:34;;;;;;;;;;;;;;;21.14;52.64;98542.34;4931237;28;127713;-58
2021/10/21 08:39:00;;;;;;;;;;;;;;;21.10;52.75;98558.75;4941567;28;128932;-58
2021/10/21 08:41:26;;;;;;;;;;;;;;;24.11;47.32;98540.19;4942996;28;98103;-57
2021/10/21 08:43:53;;;;;;;;;;;;;;;24.32;47.64;98558.50;4942093;28;97849;-58
2021/10/21 08:46:23;;;;;;;;;;;;;;;25.55;46.07;98554.19;4943242;28;98965;-57
2021/10/21 08:48:51;;;;;;;;;;;;;;;24.66;48.22;98533.88;4941784;28;98684;-58
2021/10/21 08:51:17;;;;;;;;;;;;;;;25.01;48.08;98516.19;4923961;28;98366;-58
2021/10/21 08:53:43;;;;;;;;;;;;;;;25.08;48.11;98520.84;4923819;28;98009;-59
2021/10/21 08:56:10;;;;;;;;;;;;;;;25.73;46.95;98540.13;4940616;28;128201;-58
2021/10/21 08:58:36;;;;;;;;;;;;;;;27.98;43.66;98513.94;4936366;28;99022;-57
2021/10/21 09:01:11;;;;;;;;;;;;;;;26.98;45.81;98547.22;4918928;28;98409;-59
2021/10/21 09:03:53;;;;;;;;;;;;;;;28.99;43.08;98540.75;4933392;28;98224;-58
2021/10/21 09:09:04;;;;;;;;;;;;;;;28.77;44.52;98551.63;4911454;28;98081;-59
2021/10/21 09:11:30;;;;;;;;;;;;;;;27.89;45.93;98523.63;4917896;28;127073;-58
2021/10/21 09:14:10;;;;;;;;;;;;;;;26.96;47.45;98552.41;4918372;28;117668;-59
2021/10/21 09:16:37;;;;;;;;;;;;;;;26.25;47.79;98534.25;4920392;28;98623;-59
2021/10/21 09:19:07;;;;;;;;;;;;;;;25.63;48.46;98541.84;4918721;28;98294;-58
2021/10/21 09:21:40;;;;;;;;;;;;;;;25.02;48.93;98537.03;4900570;28;98112;-59
2021/10/21 09:24:24;;;;;;;;;;;;;;;24.36;49.24;98549.03;4918316;28;98126;-58
2021/10/21 09:27:09;;;;;;;;;;;;;;;23.76;49.88;98539.22;4918589;28;99304;-57
2021/10/21 09:29:37;;;;;;;;;;;;;;;23.17;49.86;98550.84;4919307;28;98229;-57
2021/10/21 09:32:32;;;;;;;;;;;;;;;22.70;50.22;98547.41;4933167;28;105027;-58
2021/10/21 09:35:10;;;;;;;;;;;;;;;22.23;50.31;98582.28;4913744;28;97823;-58
2021/10/21 09:37:42;;;;;;;;;;;;;;;21.85;50.42;98558.28;4900582;28;98875;-57
2021/10/21 09:40:09;;;;;;;;;;;;;;;21.50;50.71;98570.75;4919063;28;98321;-58
2021/10/21 09:42:39;;;;;;;;;;;;;;;21.25;50.57;98576.84;4918705;28;98307;-58
2021/10/21 09:45:18;;;;;;;;;;;;;;;21.08;50.64;98589.28;4919241;28;98424;-58
2021/10/21 09:47:49;;;;;;;;;;;;;;;20.89;50.66;98564.91;4917914;28;98620;-58
2021/10/21 09:50:21;;;;;;;;;;;;;;;20.66;50.87;98547.94;4917822;28;98547;-58
2021/10/21 09:53:05;;;;;;;;;;;;;;;20.47;50.95;98562.63;4918137;28;99031;-58
2021/10/21 09:55:32;;;;;;;;;;;;;;;20.33;50.84;98561.34;4919750;28;97713;-57
2021/10/21 09:58:00;;;;;;;;;;;;;;;20.17;50.68;98590.13;4918577;28;98302;-58
2021/10/21 10:00:29;;;;;;;;;;;;;;;20.03;50.83;98583.31;4919034;28;98909;-58
2021/10/21 10:03:07;;;;;;;;;;;;;;;19.97;50.69;98576.63;4931913;28;105094;-57
2021/10/21 10:05:34;;;;;;;;;;;;;;;20.00;50.62;98572.34;4918312;28;98416;-58
2021/10/21 10:08:00;;;;;;;;;;;;;;;19.85;50.67;98568.72;4893876;28;99684;-58
2021/10/21 10:10:26;;;;;;;;;;;;;;;19.78;50.86;98561.22;4917345;28;128996;-57
2021/10/21 10:12:52;;;;;;;;;;;;;;;19.64;50.95;98582.91;4917632;28;98486;-57
2021/10/21 10:15:18;;;;;;;;;;;;;;;19.51;50.90;98579.59;4917960;28;117272;-57
2021/10/21 10:17:43;;;;;;;;;;;;;;;19.44;50.76;98545.94;4916411;28;128436;-58
2021/10/21 10:20:10;;;;;;;;;;;;;;;19.28;51.05;98566.03;4917701;28;126349;-57
2021/10/21 10:22:37;;;;;;;;;;;;;;;19.15;51.21;98567.44;4917729;28;98593;-57
2021/10/21 10:25:17;;;;;;;;;;;;;;;19.19;50.99;98562.03;4896299;28;98065;-57
2021/10/21 10:27:56;;;;;;;;;;;;;;;19.31;50.70;98610.97;4912716;28;97836;-58
2021/10/21 10:30:51;;;;;;;;;;;;;;;19.38;50.47;98602.88;4914183;28;99113;-57
2021/10/21 10:33:32;;;;;;;;;;;;;;;19.32;50.73;98601.59;4912788;28;98565;-57
2021/10/21 10:36:23;;;;;;;;;;;;;;;19.21;50.92;98655.28;4914650;28;98150;-57
2021/10/21 10:38:49;;;;;;;;;;;;;;;19.12;51.00;98637.22;4914556;28;98345;-58
2021/10/21 10:41:44;;;;;;;;;;;;;;;19.08;50.92;98654.72;4916991;28;125647;-58
2021/10/21 10:44:30;;;;;;;;;;;;;;;19.16;50.76;98648.19;4913999;28;98296;-58
2021/10/21 10:46:56;;;;;;;;;;;;;;;19.24;50.69;98665.47;4875012;28;98213;-60
2021/10/21 10:49:41;;;;;;;;;;;;;;;19.30;50.90;98651.16;4915952;28;126572;-60
2021/10/21 10:52:11;;;;;;;;;;;;;;;19.06;51.40;98761.56;4911497;28;98181;-57
2021/10/21 10:54:43;;;;;;;;;;;;;;;18.84;51.66;98716.75;4917454;28;97966;-57
2021/10/21 10:57:12;;;;;;;;;;;;;;;18.63;51.99;98740.91;4914353;28;97767;-60
2021/10/21 10:59:39;;;;;;;;;;;;;;;18.44;52.22;98728.09;4917669;28;98943;-57
2021/10/21 11:02:26;;;;;;;;;;;;;;;18.28;52.67;98728.19;4920661;28;99028;-57
2021/10/21 11:04:52;;;;;;;;;;;;;;;18.12;52.75;98747.34;4919682;28;98906;-57
2021/10/21 11:07:43;;;;;;;;;;;;;;;18.02;52.90;98771.66;4920120;28;97763;-58
2021/10/21 11:10:19;;;;;;;;;;;;;;;17.87;53.05;98744.06;4912287;28;97974;-57
2021/10/21 11:12:50;;;;;;;;;;;;;;;17.80;53.13;98778.56;4919350;28;99293;-58
2021/10/21 11:15:29;;;;;;;;;;;;;;;17.75;52.91;98801.44;4912549;28;98509;-60
2021/10/21 11:17:55;;;;;;;;;;;;;;;17.76;52.88;98791.31;4036617;28;10000909;-60
2021/10/21 11:20:30;;;;;;;;;;;;;;;17.76;52.79;98808.44;4899913;28;118281;-57
2021/10/21 11:23:00;;;;;;;;;;;;;;;17.74;52.92;98846.16;4920291;28;97941;-58
2021/10/21 11:25:29;;;;;;;;;;;;;;;17.73;52.92;98833.69;4917833;28;97969;-57
2021/10/21 11:27:55;;;;;;;;;;;;;;;17.67;52.97;98852.22;4919166;28;99196;-58
2021/10/21 11:30:26;;;;;;;;;;;;;;;17.65;53.06;98891.88;4919668;28;98083;-58
2021/10/21 11:32:52;;;;;;;;;;;;;;;17.61;52.91;98912.78;4901216;28;98558;-57
2021/10/21 11:35:29;;;;;;;;;;;;;;;17.63;53.03;98952.13;4919697;28;97936;-57
2021/10/21 11:38:00;;;;;;;;;;;;;;;17.74;52.72;98957.88;4919167;28;98276;-60
2021/10/21 11:40:28;;;;;;;;;;;;;;;17.96;52.41;98986.47;4902044;28;98282;-59
2021/10/21 11:42:56;;;;;;;;;;;;;;;18.06;52.39;99012.41;4921029;28;97927;-58
2021/10/21 11:45:29;;;;;;;;;;;;;;;18.06;52.58;99026.03;4921126;28;97821;-57
2021/10/21 11:47:59;;;;;;;;;;;;;;;18.02;52.75;99050.47;4933607;28;120590;-57
2021/10/21 11:50:31;;;;;;;;;;;;;;;17.95;52.88;99054.97;4921003;28;98562;-58
2021/10/21 11:52:57;;;;;;;;;;;;;;;17.91;53.00;99046.69;4920251;28;99065;-58
2021/10/21 11:55:26;;;;;;;;;;;;;;;17.94;53.08;99084.16;4917917;28;97943;-58
2021/10/21 11:57:54;;;;;;;;;;;;;;;17.92;52.82;99097.34;4916152;28;98234;-57
2021/10/21 12:00:22;;;;;;;;;;;;;;;17.92;52.97;99113.72;4920478;28;98360;-57
2021/10/21 12:02:53;;;;;;;;;;;;;;;17.90;53.09;99115.97;4919976;28;98238;-60
2021/10/21 12:05:24;;;;;;;;;;;;;;;17.82;53.02;99152.34;4921264;28;97934;-57
2021/10/21 12:07:53;;;;;;;;;;;;;;;17.76;53.14;99138.16;4919942;28;107070;-58
2021/10/21 12:10:37;;;;;;;;;;;;;;;17.74;53.27;99154.06;4913766;28;98270;-56
2021/10/21 12:13:04;;;;;;;;;;;;;;;17.67;53.84;99164.75;4912846;28;97962;-60
2021/10/21 12:15:32;;;;;;;;;;;;;;;17.60;54.12;99170.78;4920862;28;98017;-61
2021/10/21 12:17:58;;;;;;;;;;;;;;;17.51;54.41;99178.31;4900977;28;98920;-60
2021/10/21 12:20:36;;;;;;;;;;;;;;;17.52;54.26;99182.59;4892738;28;100572;-61
2021/10/21 12:23:13;;;;;;;;;;;;;;;17.54;54.40;99179.56;4919774;28;98425;-58
2021/10/21 12:25:39;;;;;;;;;;;;;;;17.81;53.87;99205.28;4920086;28;98407;-58
2021/10/21 12:28:05;;;;;;;;;;;;;;;17.82;53.94;99204.94;4917766;28;98351;-58
2021/10/21 12:30:36;;;;;;;;;;;;;;;17.79;54.12;99202.09;4919373;28;128932;-61
2021/10/21 12:33:20;;;;;;;;;;;;;;;17.94;53.81;99219.66;4920159;28;98198;-58
2021/10/21 12:36:02;;;;;;;;;;;;;;;18.03;53.64;99207.44;4919323;28;112857;-58
2021/10/21 12:38:28;;;;;;;;;;;;;;;17.96;53.90;99211.91;4918617;28;98884;-60
2021/10/21 12:41:02;;;;;;;;;;;;;;;18.02;53.93;99203.16;4920177;28;98682;-58
2021/10/21 12:43:28;;;;;;;;;;;;;;;17.94;54.35;99214.22;4913094;28;98279;-58
2021/10/21 12:45:55;;;;;;;;;;;;;;;17.97;54.28;99217.03;4919408;28;117196;-61
2021/10/21 12:48:39;;;;;;;;;;;;;;;18.18;54.02;99227.75;4918910;28;98224;-58
2021/10/21 12:51:10;;;;;;;;;;;;;;;18.37;53.75;99214.22;4918628;28;98614;-59